createdAt,value
2022-12-01T00:01:18.747Z,98135.38
2022-12-01T00:03:45.488Z,98133.66
2022-12-01T00:06:16.379Z,98135.41
2022-12-01T00:09:03.109Z,98140.59
2022-12-01T00:11:29.989Z,98138.88
2022-12-01T00:13:56.720Z,98140.59
2022-12-01T00:16:23.479Z,98142.28
2022-12-01T00:18:51.717Z,98143.16
2022-12-01T00:21:20.680Z,98148.34
2022-12-01T00:23:49.449Z,98144.88
2022-12-01T00:26:17.948Z,98144.91
2022-12-01T00:28:48.099Z,98152.69
2022-12-01T00:31:14.795Z,98148.34
2022-12-01T00:33:41.466Z,98152.63
2022-12-01T00:36:08.449Z,98165.63
2022-12-01T00:38:35.783Z,98153.53
2022-12-01T00:41:03.295Z,98148.38
2022-12-01T00:43:30.347Z,98152.72
2022-12-01T00:45:57.504Z,98153.59
2022-12-01T00:48:24.301Z,98150.97
2022-12-01T00:50:52.649Z,98155.25
2022-12-01T00:53:19.485Z,98145.72
2022-12-01T00:55:46.197Z,98152.59
2022-12-01T00:58:12.939Z,98151.72
2022-12-01T01:00:39.570Z,98149.22
2022-12-01T01:03:07.364Z,98139.66
2022-12-01T01:05:38.334Z,98149.09
2022-12-01T01:08:12.873Z,98145.66
2022-12-01T01:10:40.431Z,98143.91
2022-12-01T01:13:07.169Z,98140.47
2022-12-01T01:15:34.724Z,98138.75
2022-12-01T01:18:01.752Z,98134.47
2022-12-01T01:20:28.540Z,98133.59
2022-12-01T01:22:55.282Z,98122.28
2022-12-01T01:25:22.863Z,98122.22
2022-12-01T01:27:49.767Z,98126.53
2022-12-01T01:30:17.003Z,98123.91
2022-12-01T01:32:43.623Z,98125.66
2022-12-01T01:35:10.446Z,98125.63
2022-12-01T01:37:37.069Z,98122.97
2022-12-01T01:40:04.044Z,98118.53
2022-12-01T01:42:30.696Z,98119.31
2022-12-01T01:44:58.703Z,98122.84
2022-12-01T01:47:32.696Z,98117.81
2022-12-01T01:50:06.326Z,98123.03
2022-12-01T01:52:38.995Z,98126.47
2022-12-01T01:55:06.303Z,98123.81
2022-12-01T01:57:34.851Z,98119.34
2022-12-01T02:00:09.263Z,98126.16
2022-12-01T02:02:43.584Z,98119.19
2022-12-01T02:05:13.773Z,98115.75
2022-12-01T02:07:42.018Z,98120.09
2022-12-01T02:10:12.663Z,98129.63
2022-12-01T02:12:54.324Z,98128.75
2022-12-01T02:15:44.656Z,98124.47
2022-12-01T02:18:11.314Z,98122.81
2022-12-01T02:21:05.857Z,98119.34
2022-12-01T02:23:54.028Z,98114.09
2022-12-01T02:26:33.710Z,98107.03
2022-12-01T02:29:19.085Z,98105.34
2022-12-01T02:32:06.956Z,98108.78
2022-12-01T02:34:59.563Z,98108.88
2022-12-01T02:37:36.401Z,98103.72
2022-12-01T02:40:19.016Z,98107.22
2022-12-01T02:42:59.869Z,98109.84
2022-12-01T02:45:41.716Z,98100.41
2022-12-01T02:48:26.804Z,98099.56
2022-12-01T02:50:56.424Z,98097.81
2022-12-01T02:53:23.263Z,98098.66
2022-12-01T02:55:52.854Z,98096.91
2022-12-01T02:58:20.510Z,98102.13
2022-12-01T03:01:13.664Z,98097.78
2022-12-01T03:04:22.263Z,98096.81
2022-12-01T03:07:35.320Z,98099.38
2022-12-01T03:10:25.769Z,98104.63
2022-12-01T03:13:04.281Z,98108.16
2022-12-01T03:15:57.058Z,98108.19
2022-12-01T03:18:26.507Z,98109.94
2022-12-01T03:21:02.067Z,98113.44
2022-12-01T03:23:33.501Z,98104.72
2022-12-01T03:26:03.878Z,98107.94
2022-12-01T03:28:35.194Z,98098.34
2022-12-01T03:31:07.514Z,98107.03
2022-12-01T03:33:43.398Z,98099.31
2022-12-01T03:36:19.725Z,98101.97
2022-12-01T03:38:52.676Z,98095.06
2022-12-01T03:41:26.291Z,98099.41
2022-12-01T03:44:01.303Z,98089.09
2022-12-01T03:46:53.966Z,98084.94
2022-12-01T03:49:24.751Z,98088.38
2022-12-01T03:52:00.409Z,98090.06
2022-12-01T03:54:35.939Z,98097.84
2022-12-01T03:57:08.468Z,98094.31
2022-12-01T03:59:37.127Z,98087.25
2022-12-01T04:02:06.786Z,98093.34
2022-12-01T04:04:33.548Z,98092.44
2022-12-01T04:07:00.501Z,98091.63
2022-12-01T04:09:27.186Z,98101.06
2022-12-01T04:12:12.627Z,98097.66
2022-12-01T04:14:39.227Z,98096.84
2022-12-01T04:17:05.854Z,98103.81
2022-12-01T04:19:32.530Z,98101.28
2022-12-01T04:21:59.140Z,98093.59
2022-12-01T04:24:25.759Z,98084.09
2022-12-01T04:26:52.452Z,98097.97
2022-12-01T04:29:19.157Z,98094.50
2022-12-01T04:31:45.872Z,98106.63
2022-12-01T04:34:12.543Z,98102.34
2022-12-01T04:36:39.227Z,98110.94
2022-12-01T04:39:06.049Z,98103.16
2022-12-01T04:41:32.658Z,98104.97
2022-12-01T04:43:59.258Z,98105.88
2022-12-01T04:46:26.255Z,98104.16
2022-12-01T04:48:52.997Z,98103.22
2022-12-01T04:51:19.904Z,98109.13
2022-12-01T04:53:46.650Z,98108.28
2022-12-01T04:56:13.405Z,98099.72
2022-12-01T04:58:41.250Z,98095.34
2022-12-01T05:01:11.080Z,98097.13
2022-12-01T05:03:43.934Z,98101.50
2022-12-01T05:06:20.198Z,98100.56
2022-12-01T05:08:47.593Z,98110.84
2022-12-01T05:11:15.208Z,98108.28
2022-12-01T05:13:44.183Z,98102.22
2022-12-01T05:16:20.203Z,98110.00
2022-12-01T05:19:12.137Z,98112.44
2022-12-01T05:21:39.811Z,98107.22
2022-12-01T05:24:07.363Z,98105.47
2022-12-01T05:26:34.183Z,98103.66
2022-12-01T05:29:01.113Z,98107.91
2022-12-01T05:31:27.694Z,98106.13
2022-12-01T05:33:54.330Z,98107.00
2022-12-01T05:36:20.981Z,98110.41
2022-12-01T05:38:47.661Z,98103.56
2022-12-01T05:41:14.480Z,98101.81
2022-12-01T05:43:41.288Z,98101.88
2022-12-01T05:46:08.209Z,98103.56
2022-12-01T05:48:35.045Z,98107.00
2022-12-01T05:51:09.250Z,98100.03
2022-12-01T05:53:35.996Z,98099.25
2022-12-01T05:56:02.654Z,98098.47
2022-12-01T05:58:29.288Z,98104.34
2022-12-01T06:00:55.865Z,98100.91
2022-12-01T06:03:22.719Z,98102.63
2022-12-01T06:05:49.527Z,98105.19
2022-12-01T06:08:16.173Z,98117.22
2022-12-01T06:10:43.330Z,98117.34
2022-12-01T06:13:10.100Z,98117.38
2022-12-01T06:15:36.678Z,98124.41
2022-12-01T06:18:03.309Z,98122.75
2022-12-01T06:20:29.957Z,98126.22
2022-12-01T06:22:56.613Z,98133.13
2022-12-01T06:25:23.299Z,98126.25
2022-12-01T06:27:49.899Z,98125.50
2022-12-01T06:30:16.726Z,98125.50
2022-12-01T06:32:43.259Z,98119.47
2022-12-01T06:35:09.923Z,98118.63
2022-12-01T06:37:36.540Z,98123.88
2022-12-01T06:40:04.613Z,98113.59
2022-12-01T06:42:32.399Z,98117.00
2022-12-01T06:44:59.044Z,98111.84
2022-12-01T06:47:25.669Z,98108.34
2022-12-01T06:49:52.784Z,98109.25
2022-12-01T06:52:19.457Z,98110.22
2022-12-01T06:54:46.242Z,98107.66
2022-12-01T06:57:13.209Z,98114.56
2022-12-01T06:59:39.900Z,98115.50
2022-12-01T07:02:06.717Z,98104.19
2022-12-01T07:04:33.611Z,98106.69
2022-12-01T07:07:05.207Z,98106.66
2022-12-01T07:09:31.791Z,98103.28
2022-12-01T07:11:58.499Z,98098.13
2022-12-01T07:14:26.819Z,98103.44
2022-12-01T07:16:53.738Z,98106.13
2022-12-01T07:19:20.393Z,98103.56
2022-12-01T07:21:46.979Z,98107.97
2022-12-01T07:24:14.039Z,98107.19
2022-12-01T07:26:41.558Z,98107.22
2022-12-01T07:29:09.425Z,98102.97
2022-12-01T07:31:37.114Z,98107.28
2022-12-01T07:34:04.908Z,98101.28
2022-12-01T07:36:31.577Z,98100.47
2022-12-01T07:38:58.275Z,98106.56
2022-12-01T07:41:27.744Z,98110.91
2022-12-01T07:43:55.344Z,98099.69
2022-12-01T07:46:28.605Z,98107.47
2022-12-01T07:48:56.657Z,98107.47
2022-12-01T07:51:24.751Z,98098.81
2022-12-01T07:53:52.412Z,98097.09
2022-12-01T07:56:47.121Z,98101.44
2022-12-01T07:59:13.976Z,98094.56
2022-12-01T08:01:44.692Z,98087.66
2022-12-01T08:04:12.105Z,98084.19
2022-12-01T08:06:39.124Z,98087.72
2022-12-01T08:09:06.029Z,98089.38
2022-12-01T08:11:32.669Z,98088.53
2022-12-01T08:13:59.318Z,98088.56
2022-12-01T08:16:26.067Z,98087.78
2022-12-01T08:18:53.299Z,98087.81
2022-12-01T08:21:21.942Z,98083.50
2022-12-01T08:23:51.979Z,98091.31
2022-12-01T08:26:19.654Z,98093.09
2022-12-01T08:28:46.904Z,98082.72
2022-12-01T08:31:27.456Z,98087.09
2022-12-01T08:33:58.000Z,98084.50
2022-12-01T08:36:25.871Z,98085.41
2022-12-01T08:38:54.367Z,98086.28
2022-12-01T08:41:24.821Z,98082.81
2022-12-01T08:44:00.099Z,98076.75
2022-12-01T08:46:31.803Z,98073.28
2022-12-01T08:48:58.548Z,98070.69
2022-12-01T08:51:26.392Z,98074.13
2022-12-01T08:53:54.961Z,98068.09
2022-12-01T08:56:28.221Z,98068.09
2022-12-01T08:58:55.279Z,98063.75
2022-12-01T09:01:22.940Z,98056.75
2022-12-01T09:04:05.487Z,98042.88
2022-12-01T09:06:41.558Z,98046.31
2022-12-01T09:09:10.550Z,98036.69
2022-12-01T09:11:37.390Z,98043.63
2022-12-01T09:14:07.187Z,98046.25
2022-12-01T09:16:33.889Z,98042.69
2022-12-01T09:19:00.539Z,98028.78
2022-12-01T09:21:33.726Z,98032.22
2022-12-01T09:24:01.712Z,98022.69
2022-12-01T09:26:29.206Z,98026.19
2022-12-01T09:28:58.924Z,98024.44
2022-12-01T09:31:25.964Z,98012.28
2022-12-01T09:33:57.308Z,98013.13
2022-12-01T09:36:24.556Z,98019.19
2022-12-01T09:38:51.246Z,98018.28
2022-12-01T09:41:24.443Z,98019.09
2022-12-01T09:44:05.847Z,98005.19
2022-12-01T09:46:37.532Z,98012.94
2022-12-01T09:49:06.701Z,98011.13
2022-12-01T09:51:36.324Z,98009.31
2022-12-01T09:54:07.002Z,98004.91
2022-12-01T09:56:42.582Z,98002.28
2022-12-01T09:59:17.936Z,98003.94
2022-12-01T10:01:48.201Z,97992.53
2022-12-01T10:04:25.424Z,97995.09
2022-12-01T10:07:02.278Z,97998.63
2022-12-01T10:09:31.900Z,97995.91
2022-12-01T10:12:07.079Z,97981.97
2022-12-01T10:14:36.605Z,97986.25
2022-12-01T10:17:18.750Z,97979.28
2022-12-01T10:19:51.528Z,97979.22
2022-12-01T10:22:27.233Z,97973.03
2022-12-01T10:25:17.160Z,97972.81
2022-12-01T10:28:20.986Z,97971.78
2022-12-01T10:30:50.939Z,97964.84
2022-12-01T10:33:35.291Z,97969.19
2022-12-01T10:36:01.970Z,97975.38
2022-12-01T10:38:35.851Z,97961.44
2022-12-01T10:41:05.400Z,97957.09
2022-12-01T10:43:39.242Z,97958.81
2022-12-01T10:46:32.325Z,97961.44
2022-12-01T10:49:06.759Z,97957.06
2022-12-01T10:51:45.744Z,97958.75
2022-12-01T10:54:12.652Z,97955.22
2022-12-01T10:56:45.790Z,97946.41
2022-12-01T10:59:28.862Z,97934.22
2022-12-01T11:01:57.607Z,97942.00
2022-12-01T11:04:45.336Z,97944.59
2022-12-01T11:07:20.556Z,97936.72
2022-12-01T11:10:00.319Z,97939.16
2022-12-01T11:12:27.226Z,97925.94
2022-12-01T11:14:55.999Z,97926.69
2022-12-01T11:17:22.598Z,97930.94
2022-12-01T11:19:49.657Z,97922.97
2022-12-01T11:22:32.049Z,97911.56
2022-12-01T11:25:04.959Z,97915.78
2022-12-01T11:28:01.899Z,97914.84
2022-12-01T11:30:30.552Z,97911.25
2022-12-01T11:33:03.305Z,97909.50
2022-12-01T11:35:33.389Z,97905.06
2022-12-01T11:40:56.849Z,97899.81
2022-12-01T11:43:36.478Z,97903.22
2022-12-01T11:46:06.721Z,97901.50
2022-12-01T11:48:36.282Z,97898.94
2022-12-01T11:51:08.051Z,97890.00
2022-12-01T11:54:05.042Z,97892.50
2022-12-01T11:56:32.135Z,97897.66
2022-12-01T11:59:08.214Z,97895.06
2022-12-01T12:01:38.263Z,97892.59
2022-12-01T12:04:29.363Z,97899.63
2022-12-01T12:07:13.510Z,97898.03
2022-12-01T12:09:46.481Z,97898.75
2022-12-01T12:12:45.676Z,97897.88
2022-12-01T12:15:31.300Z,97903.25
2022-12-01T12:18:16.561Z,97902.22
2022-12-01T12:20:58.477Z,97903.16
2022-12-01T12:23:57.977Z,97898.97
2022-12-01T12:26:32.257Z,97899.88
2022-12-01T12:29:23.276Z,97897.25
2022-12-01T12:32:32.550Z,97904.16
2022-12-01T12:35:28.155Z,97894.56
2022-12-01T12:38:24.036Z,97894.50
2022-12-01T12:41:24.904Z,97891.03
2022-12-01T12:44:12.966Z,97892.66
2022-12-01T12:47:17.090Z,97890.78
2022-12-01T12:49:53.088Z,97888.94
2022-12-01T12:52:31.317Z,97884.72
2022-12-01T12:55:04.059Z,97893.50
2022-12-01T12:57:35.317Z,97894.38
2022-12-01T13:00:20.848Z,97900.41
2022-12-01T13:03:07.649Z,97899.59
2022-12-01T13:05:44.235Z,97889.09
2022-12-01T13:08:24.551Z,97891.78
2022-12-01T13:11:02.845Z,97892.59
2022-12-01T13:13:48.273Z,97897.88
2022-12-01T13:16:24.737Z,97910.09
2022-12-01T13:19:03.175Z,97900.53
2022-12-01T13:21:37.353Z,97898.88
2022-12-01T13:24:05.237Z,97906.91
2022-12-01T13:26:36.342Z,97906.00
2022-12-01T13:29:06.436Z,97901.69
2022-12-01T13:31:51.051Z,97913.94
2022-12-01T13:34:40.989Z,97915.66
2022-12-01T13:37:10.120Z,97904.41
2022-12-01T13:39:39.130Z,97911.47
2022-12-01T13:42:38.170Z,97910.53
2022-12-01T13:45:24.984Z,97907.81
2022-12-01T13:48:26.966Z,97913.13
2022-12-01T13:51:23.636Z,97913.19
2022-12-01T13:54:06.417Z,97907.97
2022-12-01T13:56:46.799Z,97914.03
2022-12-01T13:59:40.211Z,97914.13
2022-12-01T14:02:16.046Z,97922.94
2022-12-01T14:04:42.752Z,97916.00
2022-12-01T14:07:28.130Z,97914.25
2022-12-01T14:10:08.634Z,97917.81
2022-12-01T14:12:37.919Z,97921.28
2022-12-01T14:15:19.719Z,97914.38
2022-12-01T14:17:46.660Z,97919.66
2022-12-01T14:20:13.259Z,97923.09
2022-12-01T14:22:46.308Z,97924.03
2022-12-01T14:25:22.483Z,97925.00
2022-12-01T14:27:55.079Z,97924.25
2022-12-01T14:30:45.091Z,97919.00
2022-12-01T14:33:39.756Z,97928.66
2022-12-01T14:36:36.316Z,97933.94
2022-12-01T14:39:24.939Z,97927.09
2022-12-01T14:42:00.305Z,97925.38
2022-12-01T14:44:33.135Z,97917.63
2022-12-01T14:47:14.405Z,97935.09
2022-12-01T14:50:01.301Z,97922.97
2022-12-01T14:52:50.957Z,97930.88
2022-12-01T14:55:22.196Z,97939.59
2022-12-01T14:57:51.698Z,97935.31
2022-12-01T15:00:22.281Z,97931.03
2022-12-01T15:02:48.782Z,97931.09
2022-12-01T15:05:21.388Z,97938.94
2022-12-01T15:07:50.848Z,97936.41
2022-12-01T15:10:34.574Z,97937.34
2022-12-01T15:13:28.478Z,97944.28
2022-12-01T15:16:04.227Z,97945.16
2022-12-01T15:18:36.805Z,97944.28
2022-12-01T15:21:10.203Z,97944.25
2022-12-01T15:23:37.255Z,97943.41
2022-12-01T15:26:04.364Z,97943.44
2022-12-01T15:28:33.936Z,97951.34
2022-12-01T15:31:05.149Z,97946.94
2022-12-01T15:33:37.183Z,97944.34
2022-12-01T15:36:04.717Z,97951.34
2022-12-01T15:38:34.482Z,97942.63
2022-12-01T15:43:58.274Z,97953.97
2022-12-01T15:46:30.566Z,97950.50
2022-12-01T15:49:17.966Z,97952.28
2022-12-01T15:51:45.340Z,97949.53
2022-12-01T15:54:38.774Z,97951.31
2022-12-01T15:57:06.243Z,97947.00
2022-12-01T15:59:35.794Z,97951.31
2022-12-01T16:02:15.760Z,97950.53
2022-12-01T16:04:43.498Z,97954.03
2022-12-01T16:07:11.648Z,97949.69
2022-12-01T16:09:42.615Z,97949.69
2022-12-01T16:12:09.130Z,97942.72
2022-12-01T16:14:37.689Z,97951.38
2022-12-01T16:17:08.355Z,97940.97
2022-12-01T16:19:36.056Z,97947.91
2022-12-01T16:22:11.778Z,97938.41
2022-12-01T16:24:54.789Z,97939.28
2022-12-01T16:27:31.861Z,97949.66
2022-12-01T16:30:02.177Z,97946.22
2022-12-01T16:32:41.281Z,97941.84
2022-12-01T16:35:27.578Z,97948.84
2022-12-01T16:37:55.289Z,97941.00
2022-12-01T16:40:22.308Z,97950.59
2022-12-01T16:42:50.088Z,97944.47
2022-12-01T16:45:20.660Z,97940.13
2022-12-01T16:47:48.709Z,97954.03
2022-12-01T16:50:17.672Z,97952.28
2022-12-01T16:52:45.569Z,97959.25
2022-12-01T16:55:45.554Z,97956.66
2022-12-01T16:58:12.210Z,97963.63
2022-12-01T17:00:38.804Z,97960.16
2022-12-01T17:03:06.192Z,97958.38
2022-12-01T17:05:34.067Z,97962.69
2022-12-01T17:08:00.741Z,97963.63
2022-12-01T17:10:27.497Z,97975.81
2022-12-01T17:12:54.261Z,97977.56
2022-12-01T17:15:20.948Z,97968.84
2022-12-01T17:17:47.723Z,97967.88
2022-12-01T17:20:14.607Z,97974.03
2022-12-01T17:22:41.246Z,97972.28
2022-12-01T17:25:09.781Z,97973.19
2022-12-01T17:27:38.154Z,97972.31
2022-12-01T17:30:06.596Z,97974.06
2022-12-01T17:32:35.083Z,97970.56
2022-12-01T17:35:01.909Z,97970.59
2022-12-01T17:37:28.534Z,97978.44
2022-12-01T17:40:00.543Z,97975.81
2022-12-01T17:42:27.092Z,97977.53
2022-12-01T17:44:53.750Z,97978.41
2022-12-01T17:47:23.063Z,97974.03
2022-12-01T17:49:49.653Z,97972.31
2022-12-01T17:52:16.383Z,97973.22
2022-12-01T17:54:42.988Z,97975.78
2022-12-01T17:57:09.745Z,97979.25
2022-12-01T17:59:37.053Z,97980.16
2022-12-01T18:02:04.628Z,97974.97
2022-12-01T18:04:31.697Z,97982.81
2022-12-01T18:06:58.737Z,97973.19
2022-12-01T18:09:25.491Z,97975.88
2022-12-01T18:11:54.377Z,97974.06
2022-12-01T18:14:21.186Z,97977.56
2022-12-01T18:16:47.882Z,97973.22
2022-12-01T18:19:14.908Z,97974.06
2022-12-01T18:21:42.811Z,97979.28
2022-12-01T18:24:10.272Z,97973.16
2022-12-01T18:26:39.084Z,97973.22
2022-12-01T18:29:13.492Z,97970.63
2022-12-01T18:31:40.202Z,97968.81
2022-12-01T18:34:07.602Z,97967.94
2022-12-01T18:36:36.656Z,97968.03
2022-12-01T18:39:05.649Z,97961.06
2022-12-01T18:41:32.441Z,97973.22
2022-12-01T18:43:59.110Z,97969.75
2022-12-01T18:46:25.987Z,97968.84
2022-12-01T18:49:00.457Z,97965.34
2022-12-01T18:51:27.170Z,97967.94
2022-12-01T18:53:55.613Z,97967.09
2022-12-01T18:56:22.366Z,97973.16
2022-12-01T18:58:58.372Z,97966.16
2022-12-01T19:01:32.452Z,97973.09
2022-12-01T19:03:59.933Z,97977.47
2022-12-01T19:06:28.451Z,97977.50
2022-12-01T19:08:55.919Z,97978.38
2022-12-01T19:11:22.713Z,97986.19
2022-12-01T19:13:49.580Z,97982.72
2022-12-01T19:16:26.017Z,97985.28
2022-12-01T19:18:52.859Z,97987.06
2022-12-01T19:21:20.558Z,97987.06
2022-12-01T19:23:47.544Z,97986.22
2022-12-01T19:26:17.751Z,97984.50
2022-12-01T19:28:45.724Z,97981.81
2022-12-01T19:31:15.604Z,97985.28
2022-12-01T19:33:42.602Z,97990.50
2022-12-01T19:36:15.760Z,97986.16
2022-12-01T19:38:42.647Z,97987.91
2022-12-01T19:41:09.659Z,97992.28
2022-12-01T19:43:37.503Z,97991.44
2022-12-01T19:46:15.785Z,97994.91
2022-12-01T19:48:43.262Z,97987.06
2022-12-01T19:51:21.067Z,97987.97
2022-12-01T19:53:48.107Z,97988.84
2022-12-01T19:56:15.172Z,97986.28
2022-12-01T19:58:41.837Z,97988.88
2022-12-01T20:01:11.912Z,97987.13
2022-12-01T20:03:40.799Z,97987.13
2022-12-01T20:06:11.257Z,97984.50
2022-12-01T20:08:38.782Z,97988.81
2022-12-01T20:11:06.396Z,97992.28
2022-12-01T20:13:34.717Z,97993.19
2022-12-01T20:16:10.654Z,97992.31
2022-12-01T20:18:38.565Z,98001.94
2022-12-01T20:21:06.494Z,98001.94
2022-12-01T20:23:33.756Z,97982.78
2022-12-01T20:26:02.352Z,97990.59
2022-12-01T20:28:29.078Z,97993.25
2022-12-01T20:30:55.952Z,97983.66
2022-12-01T20:33:23.160Z,97987.19
2022-12-01T20:35:49.892Z,97990.66
2022-12-01T20:38:28.731Z,97993.31
2022-12-01T20:40:55.730Z,97991.59
2022-12-01T20:43:22.398Z,97995.00
2022-12-01T20:45:49.231Z,97999.38
2022-12-01T20:48:17.871Z,97995.91
2022-12-01T20:50:49.446Z,98001.97
2022-12-01T20:53:16.039Z,97995.03
2022-12-01T20:55:42.996Z,97997.66
2022-12-01T20:58:10.066Z,97995.03
2022-12-01T21:00:45.779Z,97999.38
2022-12-01T21:03:13.203Z,98002.88
2022-12-01T21:05:42.170Z,98001.97
2022-12-01T21:08:11.236Z,98000.22
2022-12-01T21:10:44.880Z,97997.66
2022-12-01T21:13:46.432Z,97999.41
2022-12-01T21:16:15.925Z,98004.63
2022-12-01T21:18:42.478Z,97999.41
2022-12-01T21:21:31.640Z,98009.84
2022-12-01T21:24:07.520Z,98005.47
2022-12-01T21:26:36.926Z,98004.66
2022-12-01T21:29:26.979Z,98010.78
2022-12-01T21:31:59.938Z,98012.47
2022-12-01T21:34:28.747Z,98010.75
2022-12-01T21:37:00.006Z,98011.59
2022-12-01T21:39:26.721Z,98012.47
2022-12-01T21:41:56.244Z,98009.84
2022-12-01T21:44:29.386Z,98010.72
2022-12-01T21:46:57.954Z,98008.97
2022-12-01T21:49:45.428Z,98009.84
2022-12-01T21:52:42.209Z,98009.00
2022-12-01T21:55:14.561Z,98008.13
2022-12-01T21:57:45.300Z,98008.97
2022-12-01T22:00:31.854Z,98012.50
2022-12-01T22:03:27.721Z,98016.81
2022-12-01T22:06:29.351Z,98014.25
2022-12-01T22:08:50.179Z,98015.97
2022-12-01T22:11:28.098Z,98016.91
2022-12-01T22:14:00.657Z,98018.59
2022-12-01T22:16:30.208Z,98016.00
2022-12-01T22:19:20.984Z,98008.22
2022-12-01T22:21:49.258Z,98021.25
2022-12-01T22:24:34.269Z,98012.59
2022-12-01T22:27:34.477Z,98009.97
2022-12-01T22:30:07.296Z,98006.47
2022-12-01T22:32:45.207Z,98013.50
2022-12-01T22:35:20.453Z,98004.84
2022-12-01T22:37:53.225Z,97993.50
2022-12-01T22:40:40.784Z,97996.97
2022-12-01T22:43:50.653Z,97999.56
2022-12-01T22:46:33.183Z,97989.06
2022-12-01T22:49:20.813Z,97992.59
2022-12-01T22:51:51.246Z,97992.59
2022-12-01T22:54:17.831Z,97989.97
2022-12-01T22:56:47.046Z,97990.84
2022-12-01T22:59:35.237Z,97985.59
2022-12-01T23:02:17.893Z,97986.44
2022-12-01T23:04:47.924Z,97986.50
2022-12-01T23:07:30.015Z,97978.69
2022-12-01T23:10:04.674Z,97985.63
2022-12-01T23:12:33.671Z,97984.75
2022-12-01T23:15:22.222Z,97973.47
2022-12-01T23:17:49.991Z,97985.66
2022-12-01T23:20:28.334Z,97976.94
2022-12-01T23:22:56.496Z,97984.75
2022-12-01T23:25:24.562Z,97989.13
2022-12-01T23:27:53.382Z,97989.97
2022-12-01T23:30:21.721Z,97989.97
2022-12-01T23:33:16.692Z,97991.75
2022-12-01T23:36:15.683Z,97992.66
2022-12-01T23:38:45.394Z,97986.53
2022-12-01T23:41:32.243Z,97984.81
2022-12-01T23:44:02.168Z,97984.81
2022-12-01T23:46:29.152Z,97983.94
2022-12-01T23:49:01.731Z,97989.19
2022-12-01T23:51:33.220Z,97977.00
2022-12-01T23:54:04.370Z,97985.69
2022-12-01T23:56:31.819Z,97982.16
2022-12-01T23:59:00.971Z,97990.88
